Time;durP1;ratioP1;P1;durP2;ratioP2;P2;SDS_P1;SDS_P2;PMS_P1;PMS_P2;Temp;Humidity;BMP_temperature;BMP_pressure;BME280_temperature;BME280_humidity;BME280_pressure;Samples;Min_cycle;Max_cycle;Signal;HPM_P1;HPM_P2
2023/10/04 00:00:20;;;;;;;;;;;;;;;18.93;100.00;100171.84;4889240;29;19966;-75
2023/10/04 00:02:51;;;;;;;;;;;;;;;18.85;100.00;100166.56;4873373;29;20034;-73
2023/10/04 00:05:17;;;;;;;;;;;;;;;18.82;100.00;100164.25;4888722;29;19924;-75
2023/10/04 00:07:44;;;;;;;;;;;;;;;18.76;100.00;100164.97;4890095;29;19919;-74
2023/10/04 00:10:10;;;;;;;;;;;;;;;18.82;100.00;100164.25;4887759;29;19927;-74
2023/10/04 00:12:35;;;;;;;;;;;;;;;18.82;100.00;100169.59;4874366;29;19967;-75
2023/10/04 00:15:01;;;;;;;;;;;;;;;18.81;100.00;100170.63;4887496;29;20003;-73
2023/10/04 00:17:27;;;;;;;;;;;;;;;18.80;100.00;100166.28;4890474;29;19967;-74
2023/10/04 00:19:52;;;;;;;;;;;;;;;18.73;100.00;100165.38;4888713;29;20328;-74
2023/10/04 00:22:19;;;;;;;;;;;;;;;18.70;100.00;100171.06;4888722;29;19923;-74
2023/10/04 00:24:44;;;;;;;;;;;;;;;18.74;100.00;100167.00;4890023;29;19923;-74
2023/10/04 00:27:10;;;;;;;;;;;;;;;18.73;100.00;100171.50;4888828;29;20231;-75
2023/10/04 00:29:36;;;;;;;;;;;;;;;18.69;100.00;100169.38;4874076;29;19930;-75
2023/10/04 00:32:03;;;;;;;;;;;;;;;18.70;100.00;100165.69;4887380;29;19975;-75
2023/10/04 00:34:29;;;;;;;;;;;;;;;18.74;100.00;100167.81;4873217;29;19924;-75
2023/10/04 00:36:54;;;;;;;;;;;;;;;18.70;100.00;100173.72;4887868;29;19927;-75
2023/10/04 00:39:20;;;;;;;;;;;;;;;18.65;100.00;100163.56;4889063;29;20324;-75
2023/10/04 00:41:46;;;;;;;;;;;;;;;18.54;100.00;100168.47;4889734;29;20291;-73
2023/10/04 00:44:12;;;;;;;;;;;;;;;18.50;100.00;100169.84;4870919;29;19992;-75
2023/10/04 00:46:41;;;;;;;;;;;;;;;18.30;100.00;100165.00;4873798;29;20399;-75
2023/10/04 00:49:08;;;;;;;;;;;;;;;18.31;100.00;100163.16;4890752;29;19924;-73
2023/10/04 00:51:36;;;;;;;;;;;;;;;18.21;100.00;100163.38;4876641;29;19927;-73
2023/10/04 00:54:04;;;;;;;;;;;;;;;18.17;100.00;100154.06;4889553;29;19924;-73
2023/10/04 00:56:30;;;;;;;;;;;;;;;18.24;100.00;100149.66;4888603;29;20018;-74
2023/10/04 00:58:58;;;;;;;;;;;;;;;18.31;100.00;100158.63;4884792;29;20031;-75
2023/10/04 01:01:23;;;;;;;;;;;;;;;18.38;100.00;100150.72;4886867;29;19971;-75
2023/10/04 01:03:50;;;;;;;;;;;;;;;18.42;100.00;100147.53;4886764;29;20052;-75
2023/10/04 01:06:16;;;;;;;;;;;;;;;18.47;100.00;100148.81;4887522;29;19932;-74
2023/10/04 01:08:42;;;;;;;;;;;;;;;18.48;100.00;100150.50;4889036;29;19923;-75
2023/10/04 01:11:07;;;;;;;;;;;;;;;18.46;100.00;100149.84;4886315;29;19958;-73
2023/10/04 01:13:33;;;;;;;;;;;;;;;18.34;100.00;100144.91;4869766;29;19963;-74
2023/10/04 01:15:59;;;;;;;;;;;;;;;18.19;100.00;100152.03;4889379;29;19923;-74
2023/10/04 01:18:27;;;;;;;;;;;;;;;18.10;100.00;100147.75;4888170;29;19983;-75
2023/10/04 01:20:53;;;;;;;;;;;;;;;18.08;100.00;100144.44;4871658;29;19984;-75
2023/10/04 01:23:19;;;;;;;;;;;;;;;18.13;100.00;100144.72;4887657;29;20424;-75
2023/10/04 01:25:46;;;;;;;;;;;;;;;18.12;100.00;100145.75;4890742;29;19952;-74
2023/10/04 01:28:12;;;;;;;;;;;;;;;18.00;100.00;100158.66;4854622;29;19934;-74
2023/10/04 01:30:41;;;;;;;;;;;;;;;17.94;100.00;100153.19;4890138;29;19924;-74
2023/10/04 01:33:12;;;;;;;;;;;;;;;18.03;100.00;100152.13;4886614;29;20380;-73
2023/10/04 01:35:38;;;;;;;;;;;;;;;18.07;100.00;100150.78;4885300;29;20411;-74
2023/10/04 01:38:06;;;;;;;;;;;;;;;18.08;100.00;100155.13;4875797;29;19927;-74
2023/10/04 01:40:32;;;;;;;;;;;;;;;18.10;100.00;100152.25;4872730;29;19967;-74
2023/10/04 01:42:59;;;;;;;;;;;;;;;18.10;100.00;100142.41;4886765;29;19963;-75
2023/10/04 01:45:25;;;;;;;;;;;;;;;18.09;100.00;100146.06;4888606;29;19927;-73
2023/10/04 01:47:51;;;;;;;;;;;;;;;18.17;100.00;100150.53;4871043;29;19964;-74
2023/10/04 01:50:17;;;;;;;;;;;;;;;18.19;100.00;100151.22;4870951;29;20385;-74
2023/10/04 01:52:46;;;;;;;;;;;;;;;18.21;100.00;100149.16;4888621;29;19919;-73
2023/10/04 01:55:13;;;;;;;;;;;;;;;18.23;100.00;100149.84;4887382;29;19928;-74
2023/10/04 01:57:39;;;;;;;;;;;;;;;18.23;100.00;100153.34;4889332;29;19979;-74
2023/10/04 02:00:06;;;;;;;;;;;;;;;18.28;100.00;100148.28;4869091;29;20352;-74
2023/10/04 02:02:38;;;;;;;;;;;;;;;18.29;100.00;100149.97;4874058;29;20345;-75
2023/10/04 02:05:05;;;;;;;;;;;;;;;18.29;100.00;100152.63;4885821;29;19924;-75
2023/10/04 02:07:31;;;;;;;;;;;;;;;18.30;100.00;100158.81;4888790;29;20300;-74
2023/10/04 02:09:57;;;;;;;;;;;;;;;18.28;100.00;100150.13;4886312;29;19924;-72
2023/10/04 02:12:22;;;;;;;;;;;;;;;18.26;100.00;100152.16;4871009;29;19923;-74
2023/10/04 02:14:48;;;;;;;;;;;;;;;18.25;100.00;100151.34;4887934;29;19971;-74
2023/10/04 02:17:18;;;;;;;;;;;;;;;18.18;100.00;100142.38;4886506;29;20396;-73
2023/10/04 02:19:43;;;;;;;;;;;;;;;18.18;100.00;100149.53;4888207;29;19982;-74
2023/10/04 02:22:10;;;;;;;;;;;;;;;18.19;100.00;100151.22;4885198;29;20010;-74
2023/10/04 02:24:38;;;;;;;;;;;;;;;18.19;100.00;100146.69;4889033;29;20015;-75
2023/10/04 02:27:07;;;;;;;;;;;;;;;18.21;100.00;100144.66;4886472;29;19931;-73
2023/10/04 02:29:33;;;;;;;;;;;;;;;18.16;100.00;100141.69;4872394;29;19923;-74
2023/10/04 02:31:59;;;;;;;;;;;;;;;18.13;100.00;100147.41;4869068;29;19924;-73
2023/10/04 02:34:24;;;;;;;;;;;;;;;18.11;100.00;100138.72;4887364;29;19938;-74
2023/10/04 02:36:51;;;;;;;;;;;;;;;18.00;100.00;100144.47;4870170;29;19990;-74
2023/10/04 02:39:18;;;;;;;;;;;;;;;17.93;100.00;100148.84;4886935;29;19928;-73
2023/10/04 02:41:47;;;;;;;;;;;;;;;17.95;100.00;100144.19;4871201;29;19923;-74
2023/10/04 02:44:15;;;;;;;;;;;;;;;17.88;100.00;100137.88;4869099;29;19980;-76
2023/10/04 02:46:44;;;;;;;;;;;;;;;17.85;100.00;100143.53;4888521;29;19923;-75
2023/10/04 02:49:09;;;;;;;;;;;;;;;17.89;100.00;100139.53;4885775;29;19998;-75
2023/10/04 02:51:35;;;;;;;;;;;;;;;17.90;100.00;100131.38;4872212;29;20377;-74
2023/10/04 02:54:02;;;;;;;;;;;;;;;17.91;100.00;100138.34;4885296;29;20427;-75
2023/10/04 02:56:28;;;;;;;;;;;;;;;17.91;100.00;100134.84;4872279;29;19953;-73
2023/10/04 02:58:53;;;;;;;;;;;;;;;17.90;100.00;100138.53;4869387;29;20325;-74
2023/10/04 03:01:22;;;;;;;;;;;;;;;17.85;100.00;100132.88;4869715;29;20364;-74
2023/10/04 03:03:51;;;;;;;;;;;;;;;17.81;100.00;100123.56;4870176;29;19950;-74
2023/10/04 03:06:16;;;;;;;;;;;;;;;17.83;100.00;100129.56;4869508;29;20036;-74
2023/10/04 03:08:43;;;;;;;;;;;;;;;17.81;100.00;100126.22;4870582;29;20455;-73
2023/10/04 03:11:08;;;;;;;;;;;;;;;17.72;100.00;100132.63;4884907;29;19930;-74
2023/10/04 03:13:35;;;;;;;;;;;;;;;17.64;100.00;100135.31;4871514;29;19927;-74
2023/10/04 03:16:03;;;;;;;;;;;;;;;17.22;100.00;100135.63;4875490;29;19946;-74
2023/10/04 03:18:28;;;;;;;;;;;;;;;17.16;100.00;100137.97;4871891;29;19928;-74
2023/10/04 03:23:33;;;;;;;;;;;;;;;17.18;100.00;100151.13;4870746;29;19931;-74
2023/10/04 03:26:00;;;;;;;;;;;;;;;17.30;100.00;100148.94;4870781;29;20021;-73
2023/10/04 03:28:26;;;;;;;;;;;;;;;17.36;100.00;100143.75;4870943;29;19924;-73
2023/10/04 03:30:56;;;;;;;;;;;;;;;17.42;100.00;100140.41;4889654;29;19923;-75
2023/10/04 03:33:22;;;;;;;;;;;;;;;17.39;100.00;100142.56;4875296;29;19932;-73
2023/10/04 03:35:48;;;;;;;;;;;;;;;17.38;100.00;100139.06;4873834;29;20396;-74
2023/10/04 03:38:15;;;;;;;;;;;;;;;17.24;100.00;100139.78;4874434;29;19938;-73
2023/10/04 03:40:42;;;;;;;;;;;;;;;17.20;100.00;100138.44;4858419;29;19924;-74
2023/10/04 03:43:12;;;;;;;;;;;;;;;17.14;100.00;100144.50;4887250;29;19931;-74
2023/10/04 03:45:40;;;;;;;;;;;;;;;17.15;100.00;100151.47;4874148;29;19923;-75
2023/10/04 03:48:15;;;;;;;;;;;;;;;17.17;100.00;100154.81;4874278;29;19920;-75
2023/10/04 03:50:45;;;;;;;;;;;;;;;17.24;100.00;100154.97;4877399;29;20410;-75
2023/10/04 03:53:10;;;;;;;;;;;;;;;17.18;100.00;100151.13;4891520;29;20378;-76
2023/10/04 03:55:37;;;;;;;;;;;;;;;17.17;100.00;100144.13;4882122;29;20420;-75
2023/10/04 03:58:04;;;;;;;;;;;;;;;17.22;100.00;100151.63;4873854;29;19934;-75
2023/10/04 04:00:33;;;;;;;;;;;;;;;17.24;100.00;100145.13;4861904;29;19920;-74
2023/10/04 04:02:59;;;;;;;;;;;;;;;17.21;100.00;100142.78;4889246;29;19957;-75
2023/10/04 04:05:25;;;;;;;;;;;;;;;17.15;100.00;100146.13;4881752;29;19927;-75
2023/10/04 04:07:51;;;;;;;;;;;;;;;17.09;100.00;100146.81;4873755;29;19928;-74
2023/10/04 04:10:19;;;;;;;;;;;;;;;17.04;100.00;100149.16;4874072;29;20400;-74
2023/10/04 04:12:46;;;;;;;;;;;;;;;17.05;100.00;100157.00;4894404;29;20025;-75
2023/10/04 04:15:15;;;;;;;;;;;;;;;17.10;100.00;100159.97;4893813;29;19974;-73
2023/10/04 04:17:44;;;;;;;;;;;;;;;17.14;100.00;100166.63;4891893;29;20357;-74
2023/10/04 04:20:19;;;;;;;;;;;;;;;17.16;100.00;100166.47;4877158;29;19923;-73
2023/10/04 04:22:50;;;;;;;;;;;;;;;17.21;100.00;100161.44;4875152;29;19931;-74
2023/10/04 04:25:19;;;;;;;;;;;;;;;17.21;100.00;100166.78;4877459;29;19930;-75
2023/10/04 04:27:46;;;;;;;;;;;;;;;17.22;100.00;100172.94;4877508;29;19929;-75
2023/10/04 04:30:16;;;;;;;;;;;;;;;17.19;100.00;100180.31;4872953;29;20376;-72
2023/10/04 04:32:47;;;;;;;;;;;;;;;17.12;100.00;100183.81;4877098;29;19931;-76
2023/10/04 04:35:22;;;;;;;;;;;;;;;17.15;100.00;100183.47;4873279;29;19924;-73
2023/10/04 04:37:48;;;;;;;;;;;;;;;17.21;100.00;100177.44;4876086;29;19931;-74
2023/10/04 04:40:23;;;;;;;;;;;;;;;17.22;100.00;100172.94;4874251;29;19965;-74
2023/10/04 04:42:48;;;;;;;;;;;;;;;17.17;100.00;100181.47;4888869;29;19924;-74
2023/10/04 04:45:16;;;;;;;;;;;;;;;17.19;100.00;100180.31;4872630;29;20039;-74
2023/10/04 04:47:44;;;;;;;;;;;;;;;17.26;100.00;100179.63;4870776;29;19972;-74
2023/10/04 04:50:10;;;;;;;;;;;;;;;17.20;100.00;100197.13;4873229;29;20386;-75
2023/10/04 04:52:36;;;;;;;;;;;;;;;17.24;100.00;100197.63;4870434;29;19967;-74
2023/10/04 04:55:02;;;;;;;;;;;;;;;17.25;100.00;100200.13;4873196;29;19980;-75
2023/10/04 04:57:30;;;;;;;;;;;;;;;17.20;100.00;100200.63;4872912;29;19924;-76
2023/10/04 04:59:57;;;;;;;;;;;;;;;17.15;100.00;100202.97;4870283;29;19927;-75
2023/10/04 05:02:28;;;;;;;;;;;;;;;17.12;100.00;100199.81;4875810;29;19939;-78
2023/10/04 05:04:53;;;;;;;;;;;;;;;16.97;100.00;100201.50;4886112;29;20287;-77
2023/10/04 05:07:19;;;;;;;;;;;;;;;16.92;100.00;100203.81;4874264;29;19935;-75
2023/10/04 05:09:44;;;;;;;;;;;;;;;16.87;100.00;100201.66;4888596;29;20352;-74
2023/10/04 05:12:11;;;;;;;;;;;;;;;16.83;100.00;100199.50;4887031;29;19982;-75
2023/10/04 05:14:37;;;;;;;;;;;;;;;16.81;100.00;100206.84;4890863;29;19924;-75
2023/10/04 05:17:03;;;;;;;;;;;;;;;16.84;100.00;100206.53;4895832;29;19946;-77
2023/10/04 05:19:29;;;;;;;;;;;;;;;16.85;100.00;100213.53;4891033;29;19932;-76
2023/10/04 05:21:54;;;;;;;;;;;;;;;16.92;100.00;100214.50;4885582;29;19984;-75
2023/10/04 05:24:20;;;;;;;;;;;;;;;16.95;100.00;100215.00;4886040;29;19986;-76
2023/10/04 05:26:45;;;;;;;;;;;;;;;16.98;100.00;100222.66;4894017;29;19978;-75
2023/10/04 05:29:12;;;;;;;;;;;;;;;17.03;100.00;100216.81;4890205;29;19927;-74
2023/10/04 05:31:37;;;;;;;;;;;;;;;17.09;100.00;100226.81;4897420;29;19931;-75
2023/10/04 05:34:03;;;;;;;;;;;;;;;17.11;100.00;100230.16;4896387;29;19923;-75
2023/10/04 05:36:28;;;;;;;;;;;;;;;17.08;100.00;100230.50;4897324;29;19933;-75
2023/10/04 05:38:53;;;;;;;;;;;;;;;17.10;100.00;100233.81;4897172;29;19924;-76
2023/10/04 05:41:19;;;;;;;;;;;;;;;17.14;100.00;100240.50;4898179;29;19943;-75
2023/10/04 05:43:45;;;;;;;;;;;;;;;17.18;100.00;100239.97;4897255;29;19967;-76
2023/10/04 05:46:10;;;;;;;;;;;;;;;17.16;100.00;100241.13;4896966;29;19979;-75
2023/10/04 05:48:35;;;;;;;;;;;;;;;17.19;100.00;100243.50;4896703;29;19924;-76
2023/10/04 05:51:01;;;;;;;;;;;;;;;17.17;100.00;100240.97;4888083;29;19924;-77
2023/10/04 05:53:27;;;;;;;;;;;;;;;17.22;100.00;100255.63;4890704;29;19954;-77
2023/10/04 05:55:52;;;;;;;;;;;;;;;17.24;100.00;100257.16;4887501;29;19976;-77
2023/10/04 05:58:18;;;;;;;;;;;;;;;17.26;100.00;100262.31;4887251;29;20018;-79
2023/10/04 06:00:51;;;;;;;;;;;;;;;17.23;100.00;100260.81;4888197;29;19951;-78
2023/10/04 06:03:17;;;;;;;;;;;;;;;17.22;100.00;100269.81;4886172;29;20274;-77
2023/10/04 06:05:42;;;;;;;;;;;;;;;17.20;100.00;100283.31;4887572;29;19947;-77
2023/10/04 06:08:15;;;;;;;;;;;;;;;17.20;100.00;100285.97;4884484;29;19967;-77
2023/10/04 06:10:42;;;;;;;;;;;;;;;17.18;100.00;100279.16;4902635;23;19916;-79
2023/10/04 06:13:14;;;;;;;;;;;;;;;17.16;100.00;100283.81;4922004;29;19930;-79
2023/10/04 06:15:47;;;;;;;;;;;;;;;17.17;100.00;100293.47;4922982;29;19923;-79
2023/10/04 06:18:12;;;;;;;;;;;;;;;17.21;100.00;100284.13;4922884;29;19923;-79
2023/10/04 06:20:40;;;;;;;;;;;;;;;17.22;100.00;100280.47;4925579;29;20255;-78
2023/10/04 06:23:16;;;;;;;;;;;;;;;17.22;100.00;100285.81;4922154;29;19954;-80
2023/10/04 06:25:41;;;;;;;;;;;;;;;17.24;100.00;100296.31;4922561;29;19923;-79
2023/10/04 06:28:09;;;;;;;;;;;;;;;17.23;100.00;100298.16;4925423;29;19923;-79
2023/10/04 06:30:34;;;;;;;;;;;;;;;17.24;100.00;100299.00;4922208;29;19969;-79
2023/10/04 06:33:01;;;;;;;;;;;;;;;17.25;100.00;100312.16;4922742;29;20318;-79
2023/10/04 06:35:27;;;;;;;;;;;;;;;17.26;100.00;100313.81;4907570;29;19923;-80
2023/10/04 06:37:53;;;;;;;;;;;;;;;17.17;100.00;100314.81;4923547;29;19927;-78
2023/10/04 06:40:20;;;;;;;;;;;;;;;17.15;100.00;100322.13;4923587;29;19978;-79
2023/10/04 06:42:48;;;;;;;;;;;;;;;17.18;100.00;100328.00;4921445;29;20003;-80
2023/10/04 06:45:14;;;;;;;;;;;;;;;17.18;100.00;100328.00;4924871;29;19981;-80
2023/10/04 06:47:41;;;;;;;;;;;;;;;17.18;100.00;100335.16;4922638;29;19923;-79
2023/10/04 06:50:07;;;;;;;;;;;;;;;17.19;100.00;100334.16;4926439;29;19978;-78
2023/10/04 06:52:34;;;;;;;;;;;;;;;17.24;100.00;100342.50;4922440;29;19959;-79
2023/10/04 06:55:02;;;;;;;;;;;;;;;16.95;100.00;100352.81;4922226;29;19998;-78
2023/10/04 06:57:27;;;;;;;;;;;;;;;16.69;100.00;100353.75;4924391;29;19943;-78
2023/10/04 06:59:53;;;;;;;;;;;;;;;16.63;100.00;100367.72;4923532;29;19927;-77
2023/10/04 07:02:19;;;;;;;;;;;;;;;16.48;100.00;100371.97;4923513;29;19930;-76
2023/10/04 07:04:44;;;;;;;;;;;;;;;16.54;100.00;100365.16;4924438;29;19923;-78
2023/10/04 07:07:10;;;;;;;;;;;;;;;16.51;100.00;100376.97;4921903;29;19970;-78
2023/10/04 07:09:35;;;;;;;;;;;;;;;16.53;100.00;100379.47;4925462;29;19923;-79
2023/10/04 07:12:02;;;;;;;;;;;;;;;16.50;100.00;100382.44;4920653;29;19962;-79
2023/10/04 07:14:29;;;;;;;;;;;;;;;16.49;100.00;100389.63;4922730;29;19938;-79
2023/10/04 07:16:55;;;;;;;;;;;;;;;16.51;100.00;100382.28;4920152;29;19918;-79
2023/10/04 07:19:20;;;;;;;;;;;;;;;16.64;100.00;100390.69;4923333;29;19930;-76
2023/10/04 07:21:45;;;;;;;;;;;;;;;16.74;100.00;100394.06;4923284;29;19930;-79
2023/10/04 07:24:11;;;;;;;;;;;;;;;16.77;100.00;100393.75;4927581;29;19934;-78
2023/10/04 07:26:36;;;;;;;;;;;;;;;16.86;100.00;100396.41;4925323;29;19927;-80
2023/10/04 07:29:02;;;;;;;;;;;;;;;16.90;100.00;100393.28;4927998;29;19922;-80
2023/10/04 07:31:28;;;;;;;;;;;;;;;16.93;100.00;100398.28;4925996;29;20441;-80
2023/10/04 07:33:53;;;;;;;;;;;;;;;17.04;100.00;100405.97;4927389;29;19923;-78
2023/10/04 07:36:19;;;;;;;;;;;;;;;17.11;100.00;100406.16;4927153;29;19922;-77
2023/10/04 07:38:45;;;;;;;;;;;;;;;17.10;100.00;100413.31;4925965;29;19923;-79
2023/10/04 07:41:11;;;;;;;;;;;;;;;17.18;100.00;100412.50;4926308;29;20732;-79
2023/10/04 07:43:37;;;;;;;;;;;;;;;17.29;100.00;100422.84;4928241;29;19923;-79
2023/10/04 07:46:03;;;;;;;;;;;;;;;17.34;100.00;100422.34;4924621;29;20009;-81
2023/10/04 07:48:29;;;;;;;;;;;;;;;17.43;100.00;100418.72;4927679;29;20475;-79
2023/10/04 07:50:55;;;;;;;;;;;;;;;17.44;100.00;100418.53;4926010;29;19990;-76
2023/10/04 07:53:21;;;;;;;;;;;;;;;17.54;100.00;100413.03;4926200;29;19927;-76
2023/10/04 07:55:49;;;;;;;;;;;;;;;17.58;100.00;100425.03;4927197;29;19961;-77
2023/10/04 07:58:15;;;;;;;;;;;;;;;17.63;100.00;100424.56;4925752;29;19959;-80
2023/10/04 08:00:41;;;;;;;;;;;;;;;17.72;100.00;100418.25;4928217;29;20047;-80
2023/10/04 08:03:08;;;;;;;;;;;;;;;17.80;100.00;100419.06;4924373;29;20363;-80
2023/10/04 08:05:34;;;;;;;;;;;;;;;17.89;100.00;100422.56;4928420;29;19929;-79
2023/10/04 08:08:03;;;;;;;;;;;;;;;17.97;100.00;100422.53;4925366;29;20021;-79
2023/10/04 08:10:29;;;;;;;;;;;;;;;18.05;100.00;100425.19;4927470;29;19951;-79
2023/10/04 08:12:59;;;;;;;;;;;;;;;18.07;100.00;100436.56;4923791;29;19924;-79
2023/10/04 08:15:25;;;;;;;;;;;;;;;18.14;100.00;100431.38;4907858;29;19926;-80
2023/10/04 08:17:52;;;;;;;;;;;;;;;18.24;100.00;100432.84;4929254;29;19943;-79
2023/10/04 08:20:21;;;;;;;;;;;;;;;18.34;100.00;100436.16;4926766;29;19938;-79
2023/10/04 08:22:47;;;;;;;;;;;;;;;18.44;100.00;100443.16;4926027;29;19928;-79
2023/10/04 08:25:16;;;;;;;;;;;;;;;18.54;100.00;100438.44;4910214;29;19923;-79
2023/10/04 08:27:42;;;;;;;;;;;;;;;18.60;100.00;100435.94;4924965;29;19978;-81
2023/10/04 08:30:11;;;;;;;;;;;;;;;18.64;100.00;100434.56;4928042;29;19927;-79
2023/10/04 08:32:37;;;;;;;;;;;;;;;18.66;100.00;100431.75;4923334;29;19929;-80
2023/10/04 08:35:03;;;;;;;;;;;;;;;18.71;100.00;100437.41;4927884;29;20009;-79
2023/10/04 08:37:29;;;;;;;;;;;;;;;18.75;100.00;100442.22;4925427;29;19939;-79
2023/10/04 08:39:55;;;;;;;;;;;;;;;18.81;100.00;100446.03;4909748;29;19923;-79
2023/10/04 08:42:20;;;;;;;;;;;;;;;18.89;100.00;100459.38;4926169;29;19930;-79
2023/10/04 08:44:46;;;;;;;;;;;;;;;18.98;100.00;100458.31;4924048;29;19923;-80
2023/10/04 08:47:19;;;;;;;;;;;;;;;19.03;100.00;100461.28;4927124;29;19970;-78
2023/10/04 08:49:55;;;;;;;;;;;;;;;19.07;100.00;100467.97;4909195;29;20022;-87
2023/10/04 08:52:30;;;;;;;;;;;;;;;19.17;100.00;100467.75;4926599;29;20362;-87
2023/10/04 08:54:58;;;;;;;;;;;;;;;19.25;100.00;100466.88;4910745;29;19923;-87
2023/10/04 08:57:26;;;;;;;;;;;;;;;19.30;100.00;100467.16;4927568;29;20296;-86
2023/10/04 08:59:52;;;;;;;;;;;;;;;19.37;100.00;100468.97;4926644;29;19923;-87
2023/10/04 09:02:18;;;;;;;;;;;;;;;19.46;100.00;100477.78;4927308;29;19927;-86
2023/10/04 09:04:44;;;;;;;;;;;;;;;19.51;100.00;100478.94;4912046;29;20291;-86
2023/10/04 09:07:11;;;;;;;;;;;;;;;19.57;100.00;100477.38;4910107;29;19923;-89
2023/10/04 09:09:40;;;;;;;;;;;;;;;19.65;100.00;100476.50;4929841;29;19967;-87
2023/10/04 09:12:08;;;;;;;;;;;;;;;19.77;100.00;100486.59;4908935;29;19969;-89
2023/10/04 09:14:36;;;;;;;;;;;;;;;19.90;100.00;100481.50;4913160;29;20392;-89
2023/10/04 09:17:02;;;;;;;;;;;;;;;20.05;100.00;100484.19;4927543;29;19922;-89
2023/10/04 09:19:28;;;;;;;;;;;;;;;20.20;100.00;100486.91;4930900;29;19959;-87
2023/10/04 09:21:53;;;;;;;;;;;;;;;20.33;100.00;100481.75;4928892;29;19923;-87
2023/10/04 09:24:20;;;;;;;;;;;;;;;20.46;100.00;100487.31;4911347;29;19978;-88
2023/10/04 09:26:49;;;;;;;;;;;;;;;20.58;100.00;100488.53;4928632;29;19927;-89
2023/10/04 09:29:15;;;;;;;;;;;;;;;20.59;100.00;100475.97;4933729;29;19927;-89
2023/10/04 09:31:50;;;;;;;;;;;;;;;20.60;100.00;100481.16;4929844;29;19927;-89
2023/10/04 09:34:16;;;;;;;;;;;;;;;20.60;100.00;100483.00;4927936;29;19923;-88
2023/10/04 09:36:42;;;;;;;;;;;;;;;20.60;100.00;100483.84;4934234;29;20010;-86
2023/10/04 09:39:13;;;;;;;;;;;;;;;20.64;100.00;100479.75;4934107;29;19930;-87
2023/10/04 09:41:43;;;;;;;;;;;;;;;20.69;100.00;100471.97;4932075;29;20331;-87
2023/10/04 09:44:25;;;;;;;;;;;;;;;20.75;100.00;100471.25;4929347;29;19923;-87
2023/10/04 09:46:54;;;;;;;;;;;;;;;20.79;100.00;100477.88;4932982;29;19930;-85
2023/10/04 09:49:29;;;;;;;;;;;;;;;20.83;100.00;100478.38;4928291;29;20314;-88
2023/10/04 09:51:55;;;;;;;;;;;;;;;20.84;100.00;100480.88;4929748;29;20104;-86
2023/10/04 09:54:24;;;;;;;;;;;;;;;20.92;100.00;100481.75;4908336;29;19923;-87
2023/10/04 09:56:51;;;;;;;;;;;;;;;21.01;100.00;100486.03;4929227;29;19927;-87
2023/10/04 09:59:20;;;;;;;;;;;;;;;21.06;100.00;100479.06;4928741;29;20033;-86
2023/10/04 10:01:59;;;;;;;;;;;;;;;21.08;100.00;100471.66;4926202;29;19923;-86
2023/10/04 10:04:25;;;;;;;;;;;;;;;21.11;100.00;100478.50;4925546;29;20298;-86
2023/10/04 10:07:15;;;;;;;;;;;;;;;21.14;100.00;100481.66;4924431;29;19979;-87
2023/10/04 10:09:48;;;;;;;;;;;;;;;21.20;100.00;100474.72;4925242;29;19923;-87
2023/10/04 10:12:14;;;;;;;;;;;;;;;21.27;100.00;100475.59;4925308;29;20034;-87
2023/10/04 10:14:41;;;;;;;;;;;;;;;21.34;100.00;100476.50;4927885;29;19954;-87
2023/10/04 10:17:08;;;;;;;;;;;;;;;21.39;100.00;100468.72;4924594;29;20284;-87
2023/10/04 10:19:34;;;;;;;;;;;;;;;21.45;100.00;100467.97;4924614;29;20298;-86
2023/10/04 10:22:08;;;;;;;;;;;;;;;21.49;100.00;100457.69;4923297;29;20005;-86
2023/10/04 10:24:34;;;;;;;;;;;;;;;21.50;100.00;100460.16;4929256;29;19923;-87
2023/10/04 10:27:03;;;;;;;;;;;;;;;21.54;100.00;100450.72;4924730;29;19938;-85
2023/10/04 10:29:30;;;;;;;;;;;;;;;21.61;100.00;100454.31;4927433;29;19974;-87
2023/10/04 10:31:56;;;;;;;;;;;;;;;21.67;100.00;100451.88;4925264;29;19946;-86
2023/10/04 10:34:22;;;;;;;;;;;;;;;21.77;100.00;100460.41;4925889;29;19923;-83
2023/10/04 10:37:08;;;;;;;;;;;;;;;21.87;100.00;100450.16;4925702;29;20261;-83
2023/10/04 10:39:41;;;;;;;;;;;;;;;21.95;100.00;100452.75;4922529;29;20033;-83
2023/10/04 10:42:07;;;;;;;;;;;;;;;22.00;100.00;100450.31;4922834;29;19923;-86
2023/10/04 10:44:34;;;;;;;;;;;;;;;22.03;100.00;100461.50;4910484;29;19942;-82
2023/10/04 10:47:00;;;;;;;;;;;;;;;22.05;100.00;100463.97;4922972;29;19926;-81
2023/10/04 10:49:42;;;;;;;;;;;;;;;22.07;100.00;100456.56;4907801;29;19923;-84
2023/10/04 10:52:27;;;;;;;;;;;;;;;22.08;100.00;100460.94;4927343;29;19922;-83
2023/10/04 10:54:54;;;;;;;;;;;;;;;22.11;100.00;100468.59;4921262;29;20080;-83
2023/10/04 10:57:29;;;;;;;;;;;;;;;22.19;100.00;100471.13;4929992;29;19930;-85
2023/10/04 10:59:56;;;;;;;;;;;;;;;22.26;100.00;100461.28;4928869;29;20339;-86
2023/10/04 11:02:25;;;;;;;;;;;;;;;22.34;100.00;100461.09;4930072;29;19982;-84
2023/10/04 11:04:51;;;;;;;;;;;;;;;22.42;100.00;100454.75;4929080;29;19978;-85
2023/10/04 11:07:21;;;;;;;;;;;;;;;22.46;100.00;100451.44;4928654;29;19974;-88
2023/10/04 11:09:51;;;;;;;;;;;;;;;22.58;100.00;100453.56;4912393;29;19923;-86
2023/10/04 11:12:17;;;;;;;;;;;;;;;22.68;100.00;100454.88;4926468;29;19933;-85
2023/10/04 11:14:43;;;;;;;;;;;;;;;22.78;100.00;100454.56;4927427;29;19930;-85
2023/10/04 11:17:10;;;;;;;;;;;;;;;22.88;100.00;100449.63;4929954;29;19923;-85
2023/10/04 11:19:36;;;;;;;;;;;;;;;22.99;100.00;100449.03;4927774;29;19923;-85
2023/10/04 11:22:02;;;;;;;;;;;;;;;23.11;100.00;100441.22;4931636;29;19923;-86
2023/10/04 11:24:28;;;;;;;;;;;;;;;23.22;100.00;100436.06;4933986;29;19923;-85
2023/10/04 11:26:56;;;;;;;;;;;;;;;23.28;100.00;100440.63;4928918;29;19929;-80
2023/10/04 11:29:24;;;;;;;;;;;;;;;23.40;100.00;100431.94;4929957;29;19923;-80
2023/10/04 11:31:50;;;;;;;;;;;;;;;23.53;100.00;100422.06;4930530;29;20268;-80
2023/10/04 11:34:15;;;;;;;;;;;;;;;23.68;100.00;100424.53;4928856;29;19990;-80
2023/10/04 11:36:41;;;;;;;;;;;;;;;23.78;100.00;100414.22;4927235;29;19924;-80
2023/10/04 11:39:13;;;;;;;;;;;;;;;23.89;100.00;100418.97;4931546;29;19918;-81
2023/10/04 11:41:39;;;;;;;;;;;;;;;23.99;100.00;100407.75;4930199;29;19933;-80
2023/10/04 11:44:06;;;;;;;;;;;;;;;24.09;100.00;100400.88;4928640;29;19923;-81
2023/10/04 11:46:51;;;;;;;;;;;;;;;24.20;100.00;100396.78;4928213;29;19923;-81
2023/10/04 11:49:16;;;;;;;;;;;;;;;24.20;100.00;100387.84;4928169;29;19923;-81
2023/10/04 11:51:41;;;;;;;;;;;;;;;24.29;100.00;100373.91;4931411;29;19929;-80
2023/10/04 11:54:07;;;;;;;;;;;;;;;24.38;100.00;100382.63;4927662;29;19966;-80
2023/10/04 11:56:42;;;;;;;;;;;;;;;24.45;100.00;100384.22;4931353;29;19986;-81
2023/10/04 11:59:08;;;;;;;;;;;;;;;24.57;100.00;100386.25;4927989;29;19955;-79
2023/10/04 12:01:42;;;;;;;;;;;;;;;24.71;100.00;100386.00;4911364;29;19924;-80
2023/10/04 12:04:08;;;;;;;;;;;;;;;24.73;100.00;100386.63;4927950;29;19958;-80
2023/10/04 12:06:35;;;;;;;;;;;;;;;24.83;100.00;100376.19;4929943;29;20384;-81
2023/10/04 12:09:04;;;;;;;;;;;;;;;24.99;100.00;100379.44;4930397;29;19931;-80
2023/10/04 12:11:35;;;;;;;;;;;;;;;25.18;100.00;100373.09;4929450;29;19953;-79
2023/10/04 12:14:00;;;;;;;;;;;;;;;25.25;100.00;100368.50;4929087;29;20010;-80
2023/10/04 12:16:26;;;;;;;;;;;;;;;25.26;100.00;100370.16;4931776;29;19923;-80
2023/10/04 12:18:51;;;;;;;;;;;;;;;25.36;100.00;100359.69;4930442;29;20291;-80
2023/10/04 12:21:17;;;;;;;;;;;;;;;25.41;100.00;100362.53;4928043;29;19937;-78
2023/10/04 12:23:43;;;;;;;;;;;;;;;25.56;100.00;100357.69;4930822;29;19934;-79
2023/10/04 12:26:08;;;;;;;;;;;;;;;25.61;100.00;100352.44;4928104;29;19923;-76
2023/10/04 12:28:36;;;;;;;;;;;;;;;25.73;100.00;100354.44;4922970;29;19922;-77
2023/10/04 12:31:03;;;;;;;;;;;;;;;25.81;100.00;100346.00;4923451;29;20287;-77